N605VV KLMT-KAPA
Flight info
| Callsign | N605VV |
|---|---|
| Flight time | 2h 2m |
| Altitude | 37000 |
| Route | CRATR1 LMT LCU Q122 BEARR BANNA PINNR3 |
| Aircraft | CL60/M-SBDE1E2E3FGHIJ1J4J5J7M3RWXYZ/LB1V1D1 |
Departure
| Time | 2026-04-26 16:42 |
|---|---|
| Airport | Crater Lake-Klamath Regional Airport (KLMT) |
Arrival
| Time | 2026-04-26 18:45 |
|---|---|
| Airport | Centennial Airport (KAPA) |
| Time | Latitude | Longitude | Altitude | Speed | Heading |
|---|---|---|---|---|---|
| 2026-04-26 16:10 | 42.16592 | -121.74345 | 4096 ft | 0 kts | 267° |
| 2026-04-26 16:36 | 42.16591 | -121.74352 | 4097 ft | 2 kts | 246° |
| 2026-04-26 16:36 | 42.16572 | -121.74340 | 4097 ft | 5 kts | 107° |
| 2026-04-26 16:36 | 42.16565 | -121.74277 | 4097 ft | 8 kts | 87° |
| 2026-04-26 16:37 | 42.16519 | -121.74234 | 4097 ft | 10 kts | 179° |
| 2026-04-26 16:37 | 42.16434 | -121.74233 | 4097 ft | 13 kts | 180° |
| 2026-04-26 16:37 | 42.16368 | -121.74186 | 4097 ft | 12 kts | 103° |
| 2026-04-26 16:37 | 42.16345 | -121.74066 | 4098 ft | 14 kts | 131° |
| 2026-04-26 16:38 | 42.16250 | -121.73997 | 4098 ft | 16 kts | 158° |
| 2026-04-26 16:38 | 42.16134 | -121.73933 | 4098 ft | 19 kts | 158° |
| 2026-04-26 16:38 | 42.16004 | -121.73864 | 4098 ft | 21 kts | 158° |
| 2026-04-26 16:38 | 42.15859 | -121.73786 | 4098 ft | 23 kts | 157° |
| 2026-04-26 16:39 | 42.15708 | -121.73705 | 4098 ft | 25 kts | 158° |
| 2026-04-26 16:39 | 42.15540 | -121.73614 | 4098 ft | 27 kts | 157° |
| 2026-04-26 16:39 | 42.15359 | -121.73516 | 4099 ft | 28 kts | 158° |
| 2026-04-26 16:39 | 42.15168 | -121.73415 | 4099 ft | 29 kts | 158° |
| 2026-04-26 16:40 | 42.14972 | -121.73309 | 4099 ft | 31 kts | 158° |
| 2026-04-26 16:40 | 42.14762 | -121.73197 | 4098 ft | 32 kts | 158° |
| 2026-04-26 16:40 | 42.14587 | -121.73103 | 4098 ft | 20 kts | 158° |
| 2026-04-26 16:40 | 42.14453 | -121.73030 | 4098 ft | 21 kts | 158° |
| 2026-04-26 16:41 | 42.14312 | -121.72955 | 4098 ft | 17 kts | 156° |
| 2026-04-26 16:41 | 42.14249 | -121.72868 | 4098 ft | 11 kts | 88° |
| 2026-04-26 16:41 | 42.14278 | -121.72754 | 4097 ft | 13 kts | 68° |
| 2026-04-26 16:41 | 42.14319 | -121.72657 | 4097 ft | 11 kts | 16° |
| 2026-04-26 16:42 | 42.14410 | -121.72695 | 4098 ft | 19 kts | 337° |
| 2026-04-26 16:42 | 42.14829 | -121.72921 | 4098 ft | 111 kts | 339° |
| 2026-04-26 16:42 | 42.15769 | -121.73431 | 4292 ft | 167 kts | 337° |
| 2026-04-26 16:42 | 42.16904 | -121.74022 | 5096 ft | 183 kts | 337° |
| 2026-04-26 16:43 | 42.18162 | -121.74735 | 5780 ft | 213 kts | 336° |
| 2026-04-26 16:43 | 42.19575 | -121.75513 | 6568 ft | 234 kts | 338° |
| 2026-04-26 16:43 | 42.21135 | -121.76494 | 7349 ft | 260 kts | 323° |
| 2026-04-26 16:43 | 42.22234 | -121.78423 | 8469 ft | 272 kts | 289° |
| 2026-04-26 16:44 | 42.22336 | -121.80949 | 9666 ft | 282 kts | 256° |
| 2026-04-26 16:44 | 42.21381 | -121.83225 | 10822 ft | 296 kts | 226° |
| 2026-04-26 16:44 | 42.19557 | -121.84694 | 11677 ft | 320 kts | 196° |
| 2026-04-26 16:44 | 42.17299 | -121.84760 | 12685 ft | 335 kts | 167° |
| 2026-04-26 16:45 | 42.15214 | -121.83352 | 13744 ft | 346 kts | 139° |
| 2026-04-26 16:45 | 42.13785 | -121.80762 | 14763 ft | 354 kts | 112° |
| 2026-04-26 16:45 | 42.13156 | -121.77570 | 15731 ft | 361 kts | 101° |
| 2026-04-26 16:45 | 42.12642 | -121.74215 | 16730 ft | 367 kts | 98° |
| 2026-04-26 16:46 | 42.12593 | -121.70814 | 17700 ft | 369 kts | 83° |
| 2026-04-26 16:46 | 42.12631 | -121.67354 | 18566 ft | 377 kts | 93° |
| 2026-04-26 16:46 | 42.12353 | -121.63841 | 19444 ft | 384 kts | 95° |
| 2026-04-26 16:46 | 42.12054 | -121.60220 | 20377 ft | 387 kts | 95° |
| 2026-04-26 16:47 | 42.11762 | -121.56617 | 21246 ft | 391 kts | 95° |
| 2026-04-26 16:47 | 42.11469 | -121.52937 | 22066 ft | 396 kts | 95° |
| 2026-04-26 16:47 | 42.11207 | -121.49270 | 22836 ft | 400 kts | 94° |
| 2026-04-26 16:47 | 42.10966 | -121.45493 | 23602 ft | 405 kts | 94° |
| 2026-04-26 16:48 | 42.10726 | -121.41729 | 24385 ft | 408 kts | 94° |
| 2026-04-26 16:48 | 42.10480 | -121.37910 | 25105 ft | 412 kts | 94° |
| 2026-04-26 16:48 | 42.10229 | -121.34040 | 25778 ft | 417 kts | 94° |
| 2026-04-26 16:48 | 42.09976 | -121.30151 | 26416 ft | 421 kts | 94° |
| 2026-04-26 16:49 | 42.09717 | -121.26201 | 27037 ft | 424 kts | 94° |
| 2026-04-26 16:49 | 42.09457 | -121.22250 | 27609 ft | 428 kts | 95° |
| 2026-04-26 16:49 | 42.09190 | -121.18230 | 28179 ft | 431 kts | 95° |
| 2026-04-26 16:49 | 42.08922 | -121.14205 | 28697 ft | 435 kts | 95° |
| 2026-04-26 16:50 | 42.08653 | -121.10187 | 29206 ft | 438 kts | 95° |
| 2026-04-26 16:50 | 42.08375 | -121.06068 | 29701 ft | 441 kts | 95° |
| 2026-04-26 16:50 | 42.08095 | -121.01933 | 30183 ft | 444 kts | 94° |
| 2026-04-26 16:50 | 42.07814 | -120.97805 | 30629 ft | 447 kts | 94° |
| 2026-04-26 16:51 | 42.07528 | -120.93628 | 31025 ft | 450 kts | 94° |
| 2026-04-26 16:51 | 42.07238 | -120.89422 | 31365 ft | 453 kts | 94° |
| 2026-04-26 16:51 | 42.06946 | -120.85191 | 31694 ft | 456 kts | 94° |
| 2026-04-26 16:51 | 42.06652 | -120.80971 | 31991 ft | 459 kts | 94° |
| 2026-04-26 16:52 | 42.06351 | -120.76672 | 32277 ft | 462 kts | 95° |
| 2026-04-26 16:52 | 42.06151 | -120.73831 | 32479 ft | 463 kts | 95° |
| 2026-04-26 16:52 | 42.05743 | -120.68063 | 32889 ft | 463 kts | 95° |
| 2026-04-26 16:52 | 42.05437 | -120.63762 | 33190 ft | 463 kts | 95° |
| 2026-04-26 16:53 | 42.05130 | -120.59467 | 33491 ft | 462 kts | 95° |
| 2026-04-26 16:53 | 42.04823 | -120.55204 | 33771 ft | 462 kts | 95° |
| 2026-04-26 16:53 | 42.04511 | -120.50883 | 34060 ft | 461 kts | 95° |
| 2026-04-26 16:53 | 42.04201 | -120.46622 | 34326 ft | 461 kts | 95° |
| 2026-04-26 16:54 | 42.03886 | -120.42305 | 34571 ft | 462 kts | 95° |
| 2026-04-26 16:54 | 42.03572 | -120.38026 | 34803 ft | 462 kts | 95° |
| 2026-04-26 16:54 | 42.03253 | -120.33707 | 35044 ft | 463 kts | 96° |
| 2026-04-26 16:54 | 42.02931 | -120.29366 | 35285 ft | 463 kts | 96° |
| 2026-04-26 16:55 | 42.02613 | -120.25096 | 35501 ft | 463 kts | 96° |
| 2026-04-26 16:55 | 42.02291 | -120.20798 | 35748 ft | 463 kts | 96° |
| 2026-04-26 16:55 | 42.01966 | -120.16489 | 35992 ft | 463 kts | 96° |
| 2026-04-26 16:55 | 42.01641 | -120.12193 | 36229 ft | 462 kts | 95° |
| 2026-04-26 16:56 | 42.00988 | -120.03630 | 36649 ft | 463 kts | 95° |
| 2026-04-26 16:56 | 42.00660 | -119.99362 | 36796 ft | 464 kts | 96° |
| 2026-04-26 16:57 | 41.99985 | -119.90646 | 36818 ft | 475 kts | 96° |
| 2026-04-26 16:57 | 41.98959 | -119.77550 | 36814 ft | 487 kts | 96° |
| 2026-04-26 16:58 | 41.98361 | -119.70016 | 36812 ft | 489 kts | 96° |
| 2026-04-26 16:59 | 41.97142 | -119.54834 | 36816 ft | 490 kts | 96° |
| 2026-04-26 17:00 | 41.95657 | -119.36670 | 36808 ft | 490 kts | 96° |
| 2026-04-26 17:00 | 41.94518 | -119.22988 | 36804 ft | 489 kts | 97° |
| 2026-04-26 17:01 | 41.93756 | -119.13932 | 36808 ft | 489 kts | 97° |
| 2026-04-26 17:01 | 41.92984 | -119.04853 | 36815 ft | 490 kts | 97° |
| 2026-04-26 17:02 | 41.92204 | -118.95764 | 36808 ft | 490 kts | 97° |
| 2026-04-26 17:02 | 41.91420 | -118.86716 | 36820 ft | 490 kts | 97° |
| 2026-04-26 17:03 | 41.90626 | -118.77637 | 36820 ft | 490 kts | 97° |
| 2026-04-26 17:03 | 41.89823 | -118.68538 | 36823 ft | 491 kts | 97° |
| 2026-04-26 17:04 | 41.89011 | -118.59422 | 36826 ft | 492 kts | 97° |
| 2026-04-26 17:04 | 41.88191 | -118.50302 | 36827 ft | 492 kts | 97° |
| 2026-04-26 17:05 | 41.87367 | -118.41219 | 36817 ft | 492 kts | 97° |
| 2026-04-26 17:05 | 41.86535 | -118.32121 | 36794 ft | 493 kts | 98° |
| 2026-04-26 17:06 | 41.85694 | -118.23009 | 36781 ft | 493 kts | 98° |
| 2026-04-26 17:06 | 41.84844 | -118.13881 | 36802 ft | 493 kts | 98° |
| 2026-04-26 17:07 | 41.83989 | -118.04780 | 36806 ft | 493 kts | 98° |
| 2026-04-26 17:07 | 41.83127 | -117.95685 | 36806 ft | 494 kts | 98° |
| 2026-04-26 17:08 | 41.82274 | -117.86751 | 36808 ft | 494 kts | 98° |
| 2026-04-26 17:08 | 41.81401 | -117.77692 | 36810 ft | 494 kts | 98° |
| 2026-04-26 17:09 | 41.80658 | -117.70042 | 36800 ft | 494 kts | 99° |
| 2026-04-26 17:09 | 41.79620 | -117.59449 | 36791 ft | 494 kts | 99° |
| 2026-04-26 17:10 | 41.78721 | -117.50344 | 36776 ft | 494 kts | 99° |
| 2026-04-26 17:10 | 41.77813 | -117.41232 | 36770 ft | 493 kts | 99° |
| 2026-04-26 17:11 | 41.76894 | -117.32086 | 36778 ft | 493 kts | 99° |
| 2026-04-26 17:11 | 41.75978 | -117.23039 | 36776 ft | 493 kts | 100° |
| 2026-04-26 17:12 | 41.74584 | -117.09412 | 36781 ft | 492 kts | 100° |
| 2026-04-26 17:13 | 41.73177 | -116.95824 | 36784 ft | 492 kts | 100° |
| 2026-04-26 17:14 | 41.71753 | -116.82230 | 36789 ft | 492 kts | 100° |
| 2026-04-26 17:14 | 41.70313 | -116.68646 | 36782 ft | 493 kts | 100° |
| 2026-04-26 17:15 | 41.68855 | -116.55044 | 36790 ft | 492 kts | 100° |
| 2026-04-26 17:16 | 41.67877 | -116.46008 | 36795 ft | 492 kts | 100° |
| 2026-04-26 17:16 | 41.66885 | -116.36916 | 36786 ft | 493 kts | 100° |
| 2026-04-26 17:17 | 41.65890 | -116.27860 | 36787 ft | 493 kts | 101° |
| 2026-04-26 17:17 | 41.64889 | -116.18817 | 36772 ft | 493 kts | 101° |
| 2026-04-26 17:18 | 41.63883 | -116.09800 | 36745 ft | 493 kts | 101° |
| 2026-04-26 17:18 | 41.62867 | -116.00753 | 36734 ft | 492 kts | 101° |
| 2026-04-26 17:19 | 41.61334 | -115.87236 | 36745 ft | 492 kts | 101° |
| 2026-04-26 17:19 | 41.60304 | -115.78229 | 36752 ft | 492 kts | 101° |
| 2026-04-26 17:20 | 41.59439 | -115.70722 | 36761 ft | 492 kts | 101° |
| 2026-04-26 17:20 | 41.58219 | -115.60199 | 36757 ft | 493 kts | 101° |
| 2026-04-26 17:21 | 41.57164 | -115.51171 | 36763 ft | 493 kts | 101° |
| 2026-04-26 17:21 | 41.56124 | -115.42342 | 36769 ft | 492 kts | 101° |
| 2026-04-26 17:22 | 41.55058 | -115.33345 | 36765 ft | 491 kts | 102° |
| 2026-04-26 17:22 | 41.53985 | -115.24351 | 36764 ft | 490 kts | 102° |
| 2026-04-26 17:23 | 41.52914 | -115.15432 | 36753 ft | 491 kts | 102° |
| 2026-04-26 17:23 | 41.51823 | -115.06421 | 36745 ft | 491 kts | 102° |
| 2026-04-26 17:24 | 41.50734 | -114.97474 | 36741 ft | 490 kts | 102° |
| 2026-04-26 17:24 | 41.49634 | -114.88500 | 36741 ft | 490 kts | 102° |
| 2026-04-26 17:25 | 41.48532 | -114.79575 | 36748 ft | 491 kts | 102° |
| 2026-04-26 17:25 | 41.47415 | -114.70586 | 36751 ft | 491 kts | 102° |
| 2026-04-26 17:26 | 41.46294 | -114.61627 | 36755 ft | 491 kts | 102° |
| 2026-04-26 17:26 | 41.45171 | -114.52702 | 36757 ft | 490 kts | 102° |
| 2026-04-26 17:27 | 41.44073 | -114.44035 | 36762 ft | 490 kts | 102° |
| 2026-04-26 17:27 | 41.42939 | -114.35145 | 36759 ft | 490 kts | 102° |
| 2026-04-26 17:28 | 41.41784 | -114.26142 | 36752 ft | 490 kts | 102° |
| 2026-04-26 17:28 | 41.40636 | -114.17258 | 36746 ft | 490 kts | 102° |
| 2026-04-26 17:29 | 41.39668 | -114.09805 | 36728 ft | 490 kts | 102° |
| 2026-04-26 17:29 | 41.38302 | -113.99352 | 36714 ft | 491 kts | 102° |
| 2026-04-26 17:30 | 41.37130 | -113.90408 | 36729 ft | 490 kts | 101° |
| 2026-04-26 17:30 | 41.36795 | -113.81381 | 36737 ft | 494 kts | 88° |
| 2026-04-26 17:31 | 41.37815 | -113.72313 | 36740 ft | 496 kts | 82° |
| 2026-04-26 17:31 | 41.38978 | -113.63271 | 36738 ft | 496 kts | 81° |
| 2026-04-26 17:32 | 41.40128 | -113.54275 | 36737 ft | 496 kts | 81° |
| 2026-04-26 17:32 | 41.41274 | -113.45247 | 36736 ft | 496 kts | 81° |
| 2026-04-26 17:33 | 41.42392 | -113.36391 | 36733 ft | 495 kts | 81° |
| 2026-04-26 17:34 | 41.44101 | -113.22745 | 36732 ft | 495 kts | 82° |
| 2026-04-26 17:34 | 41.45219 | -113.13739 | 36736 ft | 496 kts | 82° |
| 2026-04-26 17:35 | 41.46337 | -113.04678 | 36738 ft | 496 kts | 82° |
| 2026-04-26 17:35 | 41.47445 | -112.95640 | 36736 ft | 496 kts | 82° |
| 2026-04-26 17:36 | 41.48548 | -112.86581 | 36736 ft | 496 kts | 82° |
| 2026-04-26 17:36 | 41.49641 | -112.77534 | 36747 ft | 496 kts | 82° |
| 2026-04-26 17:37 | 41.50727 | -112.68498 | 36740 ft | 496 kts | 82° |
| 2026-04-26 17:37 | 41.51813 | -112.59393 | 36719 ft | 496 kts | 82° |
| 2026-04-26 17:38 | 41.52952 | -112.45747 | 36697 ft | 493 kts | 94° |
| 2026-04-26 17:38 | 41.52606 | -112.36846 | 36723 ft | 492 kts | 95° |
| 2026-04-26 17:39 | 41.52237 | -112.27753 | 36722 ft | 493 kts | 95° |
| 2026-04-26 17:39 | 41.51859 | -112.18609 | 36710 ft | 493 kts | 95° |
| 2026-04-26 17:40 | 41.51540 | -112.11001 | 36724 ft | 493 kts | 95° |
| 2026-04-26 17:40 | 41.51088 | -112.00404 | 36731 ft | 493 kts | 95° |
| 2026-04-26 17:41 | 41.50692 | -111.91292 | 36721 ft | 493 kts | 95° |
| 2026-04-26 17:41 | 41.50288 | -111.82138 | 36713 ft | 493 kts | 95° |
| 2026-04-26 17:42 | 41.49879 | -111.73048 | 36700 ft | 493 kts | 96° |
| 2026-04-26 17:42 | 41.49462 | -111.63937 | 36700 ft | 492 kts | 96° |
| 2026-04-26 17:43 | 41.49061 | -111.55308 | 36702 ft | 492 kts | 96° |
| 2026-04-26 17:43 | 41.48633 | -111.46253 | 36704 ft | 492 kts | 96° |
| 2026-04-26 17:44 | 41.48197 | -111.37163 | 36705 ft | 492 kts | 96° |
| 2026-04-26 17:44 | 41.47759 | -111.28198 | 36707 ft | 492 kts | 96° |
| 2026-04-26 17:45 | 41.47314 | -111.19227 | 36725 ft | 492 kts | 96° |
| 2026-04-26 17:45 | 41.46858 | -111.10177 | 36722 ft | 492 kts | 96° |
| 2026-04-26 17:46 | 41.46392 | -111.01067 | 36728 ft | 492 kts | 96° |
| 2026-04-26 17:46 | 41.45920 | -110.91988 | 36742 ft | 492 kts | 96° |
| 2026-04-26 17:47 | 41.45522 | -110.84428 | 36727 ft | 492 kts | 96° |
| 2026-04-26 17:47 | 41.44955 | -110.73817 | 36724 ft | 492 kts | 96° |
| 2026-04-26 17:48 | 41.44464 | -110.64782 | 36732 ft | 491 kts | 97° |
| 2026-04-26 17:48 | 41.43964 | -110.55712 | 36722 ft | 491 kts | 96° |
| 2026-04-26 17:49 | 41.43455 | -110.46606 | 36727 ft | 491 kts | 96° |
| 2026-04-26 17:49 | 41.42943 | -110.37589 | 36542 ft | 490 kts | 96° |
| 2026-04-26 17:50 | 41.42683 | -110.33038 | 36701 ft | 489 kts | 97° |
| 2026-04-26 17:50 | 41.42421 | -110.28514 | 36588 ft | 493 kts | 97° |
| 2026-04-26 17:50 | 41.42159 | -110.23996 | 36715 ft | 491 kts | 97° |
| 2026-04-26 17:50 | 41.41895 | -110.19483 | 36734 ft | 493 kts | 97° |
| 2026-04-26 17:51 | 41.41387 | -110.10886 | 36735 ft | 494 kts | 97° |
| 2026-04-26 17:51 | 41.40842 | -110.01775 | 36732 ft | 494 kts | 97° |
| 2026-04-26 17:52 | 41.40293 | -109.92718 | 36741 ft | 493 kts | 97° |
| 2026-04-26 17:52 | 41.39731 | -109.83574 | 36736 ft | 494 kts | 97° |
| 2026-04-26 17:53 | 41.39164 | -109.74454 | 36735 ft | 494 kts | 97° |
| 2026-04-26 17:54 | 41.38302 | -109.60825 | 36731 ft | 493 kts | 97° |
| 2026-04-26 17:54 | 41.37721 | -109.51776 | 36708 ft | 493 kts | 97° |
| 2026-04-26 17:55 | 41.37132 | -109.42715 | 36847 ft | 495 kts | 97° |
| 2026-04-26 17:55 | 41.36831 | -109.38126 | 36744 ft | 494 kts | 98° |
| 2026-04-26 17:55 | 41.36531 | -109.33567 | 36741 ft | 491 kts | 98° |
| 2026-04-26 17:56 | 41.35932 | -109.24576 | 36740 ft | 490 kts | 98° |
| 2026-04-26 17:57 | 41.34708 | -109.06513 | 36748 ft | 491 kts | 99° |
| 2026-04-26 17:57 | 41.34083 | -108.97456 | 36741 ft | 492 kts | 98° |
| 2026-04-26 17:58 | 41.32813 | -108.79364 | 36738 ft | 491 kts | 98° |
| 2026-04-26 17:59 | 41.31847 | -108.65854 | 36741 ft | 490 kts | 98° |
| 2026-04-26 17:59 | 41.31194 | -108.56859 | 36733 ft | 491 kts | 98° |
| 2026-04-26 18:00 | 41.30529 | -108.47784 | 36725 ft | 491 kts | 99° |
| 2026-04-26 18:00 | 41.29863 | -108.38802 | 36736 ft | 491 kts | 99° |
| 2026-04-26 18:01 | 41.29183 | -108.29728 | 36737 ft | 491 kts | 99° |
| 2026-04-26 18:01 | 41.28503 | -108.20740 | 36745 ft | 491 kts | 99° |
| 2026-04-26 18:02 | 41.27926 | -108.13203 | 36739 ft | 492 kts | 99° |
| 2026-04-26 18:02 | 41.27111 | -108.02644 | 36739 ft | 491 kts | 99° |
| 2026-04-26 18:03 | 41.26421 | -107.93815 | 36749 ft | 492 kts | 100° |
| 2026-04-26 18:03 | 41.25712 | -107.84829 | 36755 ft | 492 kts | 99° |
| 2026-04-26 18:04 | 41.24988 | -107.75742 | 36777 ft | 493 kts | 100° |
| 2026-04-26 18:05 | 41.23894 | -107.62180 | 36784 ft | 493 kts | 100° |
| 2026-04-26 18:05 | 41.23156 | -107.53137 | 36784 ft | 493 kts | 100° |
| 2026-04-26 18:06 | 41.22414 | -107.44136 | 36804 ft | 493 kts | 99° |
| 2026-04-26 18:06 | 41.21660 | -107.35082 | 36808 ft | 494 kts | 99° |
| 2026-04-26 18:07 | 41.20898 | -107.26015 | 36803 ft | 494 kts | 100° |
| 2026-04-26 18:07 | 41.20128 | -107.16936 | 36802 ft | 494 kts | 100° |
| 2026-04-26 18:08 | 41.19351 | -107.07870 | 36807 ft | 494 kts | 100° |
| 2026-04-26 18:08 | 41.18570 | -106.98841 | 36812 ft | 495 kts | 100° |
| 2026-04-26 18:09 | 41.17795 | -106.89948 | 36833 ft | 495 kts | 100° |
| 2026-04-26 18:09 | 41.17008 | -106.81004 | 36844 ft | 495 kts | 100° |
| 2026-04-26 18:10 | 41.16208 | -106.71997 | 36836 ft | 495 kts | 100° |
| 2026-04-26 18:10 | 41.15396 | -106.62942 | 36750 ft | 496 kts | 100° |
| 2026-04-26 18:10 | 41.14985 | -106.58380 | 36287 ft | 493 kts | 100° |
| 2026-04-26 18:11 | 41.14585 | -106.53941 | 35754 ft | 489 kts | 100° |
| 2026-04-26 18:11 | 41.14193 | -106.49628 | 35196 ft | 486 kts | 100° |
| 2026-04-26 18:11 | 41.13782 | -106.45128 | 34582 ft | 483 kts | 100° |
| 2026-04-26 18:11 | 41.13382 | -106.40781 | 33879 ft | 481 kts | 100° |
| 2026-04-26 18:12 | 41.12975 | -106.36362 | 33159 ft | 476 kts | 100° |
| 2026-04-26 18:12 | 41.12579 | -106.32061 | 32488 ft | 470 kts | 101° |
| 2026-04-26 18:12 | 41.12102 | -106.27801 | 31851 ft | 461 kts | 106° |
| 2026-04-26 18:12 | 41.11278 | -106.23726 | 31209 ft | 451 kts | 113° |
| 2026-04-26 18:13 | 41.10105 | -106.19914 | 30610 ft | 439 kts | 120° |
| 2026-04-26 18:13 | 41.08672 | -106.16407 | 29975 ft | 428 kts | 125° |
| 2026-04-26 18:13 | 41.07142 | -106.13068 | 29493 ft | 419 kts | 126° |
| 2026-04-26 18:13 | 41.06162 | -106.10902 | 29059 ft | 418 kts | 126° |
| 2026-04-26 18:14 | 41.04179 | -106.06480 | 28392 ft | 416 kts | 125° |
| 2026-04-26 18:14 | 41.02696 | -106.03187 | 27806 ft | 418 kts | 126° |
| 2026-04-26 18:14 | 41.01205 | -105.99891 | 27290 ft | 415 kts | 125° |
| 2026-04-26 18:14 | 40.99786 | -105.96736 | 26725 ft | 414 kts | 126° |
| 2026-04-26 18:15 | 40.98322 | -105.93488 | 26217 ft | 409 kts | 125° |
| 2026-04-26 18:15 | 40.96856 | -105.90257 | 25660 ft | 409 kts | 126° |
| 2026-04-26 18:15 | 40.95432 | -105.87128 | 25151 ft | 407 kts | 126° |
| 2026-04-26 18:15 | 40.93986 | -105.83939 | 24605 ft | 406 kts | 126° |
| 2026-04-26 18:16 | 40.92551 | -105.80767 | 24073 ft | 404 kts | 125° |
| 2026-04-26 18:16 | 40.89658 | -105.74405 | 23011 ft | 400 kts | 126° |
| 2026-04-26 18:16 | 40.88233 | -105.71283 | 22491 ft | 397 kts | 125° |
| 2026-04-26 18:17 | 40.86808 | -105.68162 | 21946 ft | 395 kts | 125° |
| 2026-04-26 18:17 | 40.85401 | -105.65080 | 21433 ft | 391 kts | 125° |
| 2026-04-26 18:17 | 40.83995 | -105.62011 | 20918 ft | 386 kts | 126° |
| 2026-04-26 18:17 | 40.82613 | -105.59007 | 20404 ft | 379 kts | 126° |
| 2026-04-26 18:18 | 40.81266 | -105.56086 | 19911 ft | 373 kts | 126° |
| 2026-04-26 18:18 | 40.79933 | -105.53196 | 19415 ft | 367 kts | 126° |
| 2026-04-26 18:18 | 40.78625 | -105.50358 | 18932 ft | 361 kts | 125° |
| 2026-04-26 18:18 | 40.77304 | -105.47495 | 18439 ft | 357 kts | 126° |
| 2026-04-26 18:19 | 40.76013 | -105.44701 | 17958 ft | 352 kts | 125° |
| 2026-04-26 18:19 | 40.74731 | -105.41936 | 17498 ft | 347 kts | 125° |
| 2026-04-26 18:19 | 40.73621 | -105.39548 | 17066 ft | 344 kts | 125° |
| 2026-04-26 18:19 | 40.72901 | -105.38002 | 16842 ft | 340 kts | 125° |
| 2026-04-26 18:20 | 40.71667 | -105.35354 | 16557 ft | 331 kts | 125° |
| 2026-04-26 18:20 | 40.70451 | -105.32735 | 16085 ft | 330 kts | 126° |
| 2026-04-26 18:20 | 40.69258 | -105.30157 | 15647 ft | 327 kts | 125° |
| 2026-04-26 18:20 | 40.68471 | -105.28456 | 15360 ft | 324 kts | 125° |
| 2026-04-26 18:21 | 40.66927 | -105.25129 | 14822 ft | 319 kts | 125° |
| 2026-04-26 18:21 | 40.65764 | -105.22626 | 14365 ft | 318 kts | 125° |
| 2026-04-26 18:21 | 40.64608 | -105.20142 | 13955 ft | 315 kts | 125° |
| 2026-04-26 18:21 | 40.63478 | -105.17712 | 13536 ft | 313 kts | 125° |
| 2026-04-26 18:22 | 40.62347 | -105.15288 | 13105 ft | 310 kts | 124° |
| 2026-04-26 18:22 | 40.61223 | -105.12878 | 12728 ft | 306 kts | 124° |
| 2026-04-26 18:22 | 40.60098 | -105.10471 | 12306 ft | 305 kts | 124° |
| 2026-04-26 18:22 | 40.58998 | -105.08119 | 11890 ft | 303 kts | 124° |
| 2026-04-26 18:23 | 40.57896 | -105.05793 | 11504 ft | 299 kts | 127° |
| 2026-04-26 18:23 | 40.56462 | -105.03848 | 11034 ft | 294 kts | 147° |
| 2026-04-26 18:23 | 40.54634 | -105.02837 | 10784 ft | 281 kts | 171° |
| 2026-04-26 18:23 | 40.52683 | -105.02719 | 10639 ft | 281 kts | 182° |
| 2026-04-26 18:24 | 40.50810 | -105.02753 | 10507 ft | 283 kts | 181° |
| 2026-04-26 18:24 | 40.48825 | -105.02748 | 10340 ft | 283 kts | 180° |
| 2026-04-26 18:24 | 40.46858 | -105.02710 | 10196 ft | 282 kts | 180° |
| 2026-04-26 18:24 | 40.44871 | -105.02690 | 10021 ft | 282 kts | 180° |
| 2026-04-26 18:25 | 40.42919 | -105.02679 | 9979 ft | 281 kts | 180° |
| 2026-04-26 18:25 | 40.40957 | -105.02657 | 9996 ft | 282 kts | 179° |
| 2026-04-26 18:25 | 40.38992 | -105.02625 | 9985 ft | 282 kts | 179° |
| 2026-04-26 18:25 | 40.37027 | -105.02600 | 9967 ft | 281 kts | 179° |
| 2026-04-26 18:26 | 40.35035 | -105.02581 | 9960 ft | 281 kts | 179° |
| 2026-04-26 18:26 | 40.33074 | -105.02562 | 9959 ft | 281 kts | 179° |
| 2026-04-26 18:26 | 40.31094 | -105.02534 | 9965 ft | 281 kts | 179° |
| 2026-04-26 18:26 | 40.29098 | -105.02514 | 9966 ft | 282 kts | 180° |
| 2026-04-26 18:27 | 40.27138 | -105.02502 | 9987 ft | 282 kts | 180° |
| 2026-04-26 18:27 | 40.25131 | -105.02481 | 9988 ft | 283 kts | 179° |
| 2026-04-26 18:27 | 40.23154 | -105.02455 | 9984 ft | 282 kts | 180° |
| 2026-04-26 18:27 | 40.21177 | -105.02561 | 9799 ft | 285 kts | 185° |
| 2026-04-26 18:28 | 40.19217 | -105.02826 | 9599 ft | 280 kts | 186° |
| 2026-04-26 18:28 | 40.17272 | -105.03064 | 9382 ft | 281 kts | 185° |
| 2026-04-26 18:28 | 40.15332 | -105.03276 | 9165 ft | 279 kts | 185° |
| 2026-04-26 18:28 | 40.13387 | -105.03495 | 8974 ft | 279 kts | 185° |
| 2026-04-26 18:29 | 40.11443 | -105.03713 | 8987 ft | 279 kts | 184° |
| 2026-04-26 18:29 | 40.09488 | -105.03918 | 8986 ft | 280 kts | 184° |
| 2026-04-26 18:29 | 40.07561 | -105.04114 | 8984 ft | 272 kts | 184° |
| 2026-04-26 18:29 | 40.05722 | -105.04306 | 9024 ft | 253 kts | 184° |
| 2026-04-26 18:30 | 40.04012 | -105.04490 | 9050 ft | 236 kts | 184° |
| 2026-04-26 18:30 | 40.02394 | -105.04665 | 9040 ft | 232 kts | 184° |
| 2026-04-26 18:30 | 40.00766 | -105.04838 | 8983 ft | 234 kts | 184° |
| 2026-04-26 18:30 | 39.99175 | -105.05004 | 8968 ft | 234 kts | 185° |
| 2026-04-26 18:31 | 39.97527 | -105.05176 | 8969 ft | 235 kts | 184° |
| 2026-04-26 18:31 | 39.95947 | -105.05341 | 8977 ft | 235 kts | 185° |
| 2026-04-26 18:31 | 39.94308 | -105.05513 | 8975 ft | 235 kts | 185° |
| 2026-04-26 18:31 | 39.92666 | -105.05686 | 8967 ft | 235 kts | 185° |
| 2026-04-26 18:32 | 39.91037 | -105.05859 | 8967 ft | 234 kts | 185° |
| 2026-04-26 18:32 | 39.89383 | -105.06035 | 8972 ft | 234 kts | 185° |
| 2026-04-26 18:32 | 39.87875 | -105.06194 | 8972 ft | 234 kts | 184° |
| 2026-04-26 18:32 | 39.86279 | -105.06365 | 8976 ft | 235 kts | 184° |
| 2026-04-26 18:33 | 39.84629 | -105.06540 | 8970 ft | 234 kts | 184° |
| 2026-04-26 18:33 | 39.83006 | -105.06703 | 8978 ft | 234 kts | 184° |
| 2026-04-26 18:33 | 39.81376 | -105.06870 | 8978 ft | 234 kts | 184° |
| 2026-04-26 18:33 | 39.79758 | -105.07039 | 8978 ft | 234 kts | 184° |
| 2026-04-26 18:34 | 39.78119 | -105.07211 | 8970 ft | 234 kts | 184° |
| 2026-04-26 18:34 | 39.76491 | -105.07385 | 8978 ft | 233 kts | 185° |
| 2026-04-26 18:34 | 39.74876 | -105.07555 | 8991 ft | 234 kts | 185° |
| 2026-04-26 18:34 | 39.73238 | -105.07728 | 8976 ft | 234 kts | 185° |
| 2026-04-26 18:35 | 39.71589 | -105.07899 | 8972 ft | 234 kts | 185° |
| 2026-04-26 18:35 | 39.69982 | -105.07671 | 8961 ft | 236 kts | 161° |
| 2026-04-26 18:35 | 39.68458 | -105.06815 | 8972 ft | 237 kts | 157° |
| 2026-04-26 18:35 | 39.66949 | -105.05974 | 8981 ft | 236 kts | 158° |
| 2026-04-26 18:36 | 39.65428 | -105.05134 | 8981 ft | 236 kts | 158° |
| 2026-04-26 18:36 | 39.63918 | -105.04293 | 8978 ft | 236 kts | 158° |
| 2026-04-26 18:36 | 39.62407 | -105.03447 | 8980 ft | 236 kts | 157° |
| 2026-04-26 18:36 | 39.60894 | -105.02603 | 8989 ft | 236 kts | 158° |
| 2026-04-26 18:37 | 39.59374 | -105.01756 | 8986 ft | 235 kts | 158° |
| 2026-04-26 18:37 | 39.57865 | -105.00912 | 8981 ft | 235 kts | 158° |
| 2026-04-26 18:37 | 39.56379 | -105.00076 | 8982 ft | 235 kts | 157° |
| 2026-04-26 18:37 | 39.54853 | -104.99216 | 8986 ft | 233 kts | 157° |
| 2026-04-26 18:38 | 39.53434 | -104.98410 | 9000 ft | 210 kts | 158° |
| 2026-04-26 18:38 | 39.52164 | -104.97678 | 9012 ft | 192 kts | 158° |
| 2026-04-26 18:38 | 39.50939 | -104.96967 | 8981 ft | 190 kts | 157° |
| 2026-04-26 18:38 | 39.49728 | -104.96269 | 8986 ft | 190 kts | 158° |
| 2026-04-26 18:39 | 39.48512 | -104.95572 | 8998 ft | 191 kts | 158° |
| 2026-04-26 18:39 | 39.47293 | -104.94868 | 8988 ft | 191 kts | 157° |
| 2026-04-26 18:39 | 39.46077 | -104.94160 | 8982 ft | 190 kts | 158° |
| 2026-04-26 18:39 | 39.44863 | -104.93449 | 8992 ft | 191 kts | 157° |
| 2026-04-26 18:40 | 39.43653 | -104.92743 | 8986 ft | 191 kts | 158° |
| 2026-04-26 18:40 | 39.42446 | -104.92038 | 8986 ft | 190 kts | 158° |
| 2026-04-26 18:40 | 39.41286 | -104.91332 | 8896 ft | 177 kts | 152° |
| 2026-04-26 18:40 | 39.40447 | -104.90125 | 8244 ft | 195 kts | 112° |
| 2026-04-26 18:41 | 39.40361 | -104.88413 | 7997 ft | 183 kts | 85° |
| 2026-04-26 18:41 | 39.40523 | -104.86775 | 8195 ft | 191 kts | 75° |
| 2026-04-26 18:41 | 39.41284 | -104.85317 | 8086 ft | 202 kts | 38° |
| 2026-04-26 18:41 | 39.42572 | -104.84667 | 8010 ft | 197 kts | 7° |
| 2026-04-26 18:42 | 39.43938 | -104.84586 | 8007 ft | 197 kts | 0° |
| 2026-04-26 18:42 | 39.45303 | -104.84582 | 7844 ft | 191 kts | 359° |
| 2026-04-26 18:42 | 39.46585 | -104.84616 | 7627 ft | 168 kts | 358° |
| 2026-04-26 18:42 | 39.47699 | -104.84660 | 7414 ft | 154 kts | 358° |
| 2026-04-26 18:43 | 39.48745 | -104.84706 | 7231 ft | 149 kts | 358° |
| 2026-04-26 18:43 | 39.49773 | -104.84774 | 7085 ft | 148 kts | 355° |
| 2026-04-26 18:43 | 39.50814 | -104.84810 | 6865 ft | 148 kts | 358° |
| 2026-04-26 18:43 | 39.51835 | -104.84869 | 6647 ft | 146 kts | 0° |
| 2026-04-26 18:44 | 39.52846 | -104.84869 | 6406 ft | 144 kts | 358° |
| 2026-04-26 18:44 | 39.53828 | -104.84920 | 6205 ft | 142 kts | 358° |
| 2026-04-26 18:44 | 39.54812 | -104.84975 | 6024 ft | 140 kts | 359° |
| 2026-04-26 18:44 | 39.55806 | -104.85028 | 5848 ft | 140 kts | 359° |
| 2026-04-26 18:45 | 39.56657 | -104.85066 | 5828 ft | 95 kts | 354° |
| 2026-04-26 18:45 | 39.57070 | -104.85087 | 5828 ft | 15 kts | 358° |
| 2026-04-26 18:45 | 39.57231 | -104.85062 | 5828 ft | 24 kts | 15° |
| 2026-04-26 18:45 | 39.57325 | -104.84998 | 5828 ft | 9 kts | 29° |
| 2026-04-26 18:46 | 39.57450 | -104.84956 | 5828 ft | 27 kts | 357° |
| 2026-04-26 18:46 | 39.57629 | -104.84970 | 5828 ft | 18 kts | 357° |
| 2026-04-26 18:46 | 39.57738 | -104.84968 | 5828 ft | 6 kts | 51° |
| 2026-04-26 18:46 | 39.57744 | -104.84891 | 5828 ft | 11 kts | 87° |
| 2026-04-26 18:47 | 39.57769 | -104.84862 | 5828 ft | 5 kts | 356° |
| 2026-04-26 18:47 | 39.57785 | -104.84848 | 5828 ft | 0 kts | 90° |
| 2026-04-26 18:47 | 39.57785 | -104.84847 | 5828 ft | 0 kts | 90° |
| 2026-04-26 18:47 | 39.57785 | -104.84848 | 5828 ft | 0 kts | 90° |